createdAt,value
2019-06-27T00:00:09.057Z,24.77
2019-06-27T00:10:11.321Z,27.33
2019-06-27T00:20:13.685Z,24.30
2019-06-27T00:30:15.411Z,21.10
2019-06-27T00:40:17.041Z,23.20
2019-06-27T00:50:19.690Z,24.60
2019-06-27T01:00:21.318Z,24.60
2019-06-27T01:10:22.927Z,22.63
2019-06-27T01:20:24.375Z,23.17
2019-06-27T01:30:26.101Z,20.33
2019-06-27T01:40:27.740Z,23.13
2019-06-27T01:50:29.272Z,20.10
2019-06-27T02:00:31.002Z,25.20
2019-06-27T02:10:33.523Z,19.93
2019-06-27T02:20:35.073Z,18.60
2019-06-27T02:30:41.039Z,34.97
2019-06-27T02:40:42.475Z,27.30
2019-06-27T02:50:43.906Z,24.80
2019-06-27T03:00:45.533Z,26.33
2019-06-27T03:10:47.067Z,26.40
2019-06-27T03:20:48.501Z,30.33
2019-06-27T03:30:50.153Z,28.37
2019-06-27T03:40:51.682Z,28.23
2019-06-27T03:50:56.103Z,27.03
2019-06-27T04:00:56.488Z,28.10
2019-06-27T04:10:59.045Z,24.60
2019-06-27T04:21:11.137Z,33.40
2019-06-27T04:31:24.829Z,28.90
2019-06-27T04:41:28.229Z,25.50
2019-06-27T04:51:29.742Z,24.43
2019-06-27T05:01:31.278Z,20.00
2019-06-27T05:11:32.807Z,22.57
2019-06-27T05:21:34.249Z,23.07
2019-06-27T05:31:35.801Z,26.23
2019-06-27T05:41:37.340Z,19.20
2019-06-27T05:51:38.759Z,22.50
2019-06-27T06:01:40.285Z,23.00
2019-06-27T06:11:41.804Z,23.15
2019-06-27T06:21:44.430Z,25.15
2019-06-27T06:31:49.104Z,22.22
2019-06-27T06:41:49.235Z,31.45
2019-06-27T06:51:50.783Z,33.73
2019-06-27T07:01:53.425Z,20.72
2019-06-27T07:11:54.844Z,22.07
2019-06-27T07:21:56.363Z,24.32
2019-06-27T07:31:57.823Z,23.52
2019-06-27T07:41:59.241Z,22.37
2019-06-27T07:52:00.758Z,19.80
2019-06-27T08:02:02.489Z,29.65
2019-06-27T08:12:04.130Z,26.37
2019-06-27T08:22:05.555Z,29.50
2019-06-27T08:32:07.223Z,22.67
2019-06-27T08:42:08.658Z,27.82
2019-06-27T08:52:10.090Z,17.10
2019-06-27T09:02:11.532Z,19.20
2019-06-27T09:12:13.043Z,25.48
2019-06-27T09:22:14.448Z,20.60
2019-06-27T09:32:25.336Z,22.60
2019-06-27T09:42:21.437Z,26.12
2019-06-27T09:52:22.891Z,24.77
2019-06-27T10:02:37.458Z,19.45
2019-06-27T10:12:41.302Z,15.10
2019-06-27T10:22:31.532Z,24.32
2019-06-27T10:32:32.992Z,17.73
2019-06-27T10:42:34.427Z,19.92
2019-06-27T10:52:35.981Z,19.02
2019-06-27T11:02:37.612Z,19.37
2019-06-27T11:12:39.228Z,17.65
2019-06-27T11:22:40.666Z,15.10
2019-06-27T11:32:42.240Z,18.25
2019-06-27T11:42:43.696Z,17.55
2019-06-27T11:52:47.210Z,15.68
2019-06-27T12:02:48.571Z,18.95
2019-06-27T12:12:50.996Z,14.73
2019-06-27T12:22:52.612Z,15.65
2019-06-27T12:32:54.073Z,22.42
2019-06-27T12:42:55.533Z,22.22
2019-06-27T12:52:56.974Z,20.48
2019-06-27T13:02:58.528Z,20.55
2019-06-27T13:12:59.942Z,19.48
2019-06-27T13:23:01.425Z,18.12
2019-06-27T13:33:03.626Z,18.70
2019-06-27T13:43:05.148Z,19.40
2019-06-27T13:53:06.664Z,17.73
2019-06-27T14:03:08.229Z,22.85
2019-06-27T14:13:09.637Z,24.37
2019-06-27T14:23:11.184Z,13.50
2019-06-27T14:33:12.777Z,23.45
2019-06-27T14:43:14.319Z,22.13
2019-06-27T14:53:15.761Z,19.98
2019-06-27T15:03:17.235Z,20.57
2019-06-27T15:13:18.754Z,18.55
2019-06-27T15:23:20.313Z,18.60
2019-06-27T15:33:21.910Z,18.50
2019-06-27T15:43:23.345Z,19.12
2019-06-27T15:53:24.780Z,25.82
2019-06-27T16:03:26.255Z,23.12
2019-06-27T16:13:27.666Z,18.90
2019-06-27T16:23:30.795Z,16.85
2019-06-27T16:33:32.306Z,20.43
2019-06-27T16:43:33.791Z,20.30
2019-06-27T16:53:35.209Z,25.40
2019-06-27T17:03:36.769Z,24.50
2019-06-27T17:13:38.299Z,18.57
2019-06-27T17:23:39.752Z,21.37
2019-06-27T17:33:41.352Z,21.65
2019-06-27T17:43:42.809Z,21.20
2019-06-27T17:53:44.347Z,20.43
2019-06-27T18:03:45.811Z,24.15
2019-06-27T18:13:47.285Z,16.75
2019-06-27T18:23:48.689Z,18.12
2019-06-27T18:33:50.248Z,17.42
2019-06-27T18:43:51.873Z,23.98
2019-06-27T18:53:53.392Z,18.37
2019-06-27T19:03:54.877Z,18.50
2019-06-27T19:13:56.943Z,17.77
2019-06-27T19:23:58.469Z,18.63
2019-06-27T19:33:59.933Z,17.50
2019-06-27T19:44:01.601Z,13.53
2019-06-27T19:54:03.541Z,25.43
2019-06-27T20:04:05.287Z,18.03
2019-06-27T20:14:06.826Z,16.00
2019-06-27T20:24:08.263Z,11.07
2019-06-27T20:34:09.708Z,12.23
2019-06-27T20:44:11.281Z,12.77
2019-06-27T20:54:12.717Z,10.07
2019-06-27T21:04:14.285Z,10.70
2019-06-27T21:14:15.917Z,13.60
2019-06-27T21:24:17.374Z,10.87
2019-06-27T21:34:18.797Z,11.57
2019-06-27T21:44:20.281Z,18.13
2019-06-27T21:54:21.739Z,8.10
2019-06-27T22:04:23.162Z,9.73
2019-06-27T22:14:24.698Z,9.10
2019-06-27T22:24:26.256Z,9.30
2019-06-27T22:34:28.686Z,9.03
2019-06-27T22:44:48.696Z,8.60
2019-06-27T22:54:52.123Z,8.20
2019-06-27T23:04:53.545Z,8.73
2019-06-27T23:14:56.089Z,7.47
2019-06-27T23:24:57.618Z,8.53
2019-06-27T23:34:59.044Z,8.40
2019-06-27T23:45:00.510Z,8.03
2019-06-27T23:55:02.825Z,6.40
